createdAt,value
2023-05-18T00:02:09.091Z,54
2023-05-18T00:05:00.569Z,55.3
2023-05-18T00:07:49.297Z,57
2023-05-18T00:10:37.846Z,57.5
2023-05-18T00:13:25.503Z,59.1
2023-05-18T00:16:12.951Z,59.5
2023-05-18T00:19:00.497Z,60.2
2023-05-18T00:21:48.758Z,62
2023-05-18T00:24:37.350Z,58.9
2023-05-18T00:27:24.580Z,56.4
2023-05-18T00:30:11.970Z,55.6
2023-05-18T00:32:59.599Z,55.8
2023-05-18T00:35:47.045Z,58.1
2023-05-18T00:38:34.331Z,59.3
2023-05-18T00:41:21.858Z,59.6
2023-05-18T00:44:10.752Z,61.1
2023-05-18T00:46:58.321Z,59.9
2023-05-18T00:49:46.606Z,60.5
2023-05-18T00:52:34.334Z,60.8
2023-05-18T00:55:22.453Z,61.6
2023-05-18T00:58:11.070Z,60.9
2023-05-18T01:00:59.247Z,62.8
2023-05-18T01:03:47.448Z,60.2
2023-05-18T01:06:40.950Z,54.4
2023-05-18T01:09:28.372Z,55.6
2023-05-18T01:12:15.842Z,56.3
2023-05-18T01:15:09.980Z,58.1
2023-05-18T01:18:01.808Z,59.3
2023-05-18T01:20:59.994Z,60.4
2023-05-18T01:24:04.043Z,59.7
2023-05-18T01:27:10.323Z,60
2023-05-18T01:30:01.915Z,60.3
2023-05-18T01:32:53.592Z,63.8
2023-05-18T01:35:41.028Z,56.4
2023-05-18T01:38:32.624Z,54.5
2023-05-18T01:41:21.101Z,56.2
2023-05-18T01:44:11.146Z,56.4
2023-05-18T01:47:07.576Z,57.5
2023-05-18T01:49:59.036Z,59.4
2023-05-18T01:52:51.504Z,60.5
2023-05-18T01:55:45.348Z,60.4
2023-05-18T01:58:35.389Z,63.4
2023-05-18T02:01:24.299Z,61.6
2023-05-18T02:04:11.776Z,52.5
2023-05-18T02:06:59.048Z,51.3
2023-05-18T02:09:46.338Z,53.9
2023-05-18T02:12:34.532Z,55
2023-05-18T02:15:21.816Z,57.6
2023-05-18T02:18:09.414Z,57.5
2023-05-18T02:20:56.758Z,61.3
2023-05-18T02:23:44.408Z,59.8
2023-05-18T02:26:31.750Z,60.6
2023-05-18T02:29:19.093Z,60.4
2023-05-18T02:32:06.313Z,60.7
2023-05-18T02:34:54.299Z,61.3
2023-05-18T02:37:41.511Z,61.7
2023-05-18T02:40:29.022Z,62.8
2023-05-18T02:43:16.440Z,54.9
2023-05-18T02:46:04.151Z,53.3
2023-05-18T02:48:51.497Z,54.8
2023-05-18T02:51:38.766Z,57.6
2023-05-18T02:54:26.116Z,57.4
2023-05-18T02:57:13.675Z,59.5
2023-05-18T03:00:01.383Z,59.7
2023-05-18T03:02:56.251Z,63
2023-05-18T03:05:44.890Z,60.1
2023-05-18T03:08:32.288Z,55.6
2023-05-18T03:11:21.610Z,55.8
2023-05-18T03:14:10.673Z,56.6
2023-05-18T03:16:58.272Z,59.5
2023-05-18T03:19:45.939Z,60.5
2023-05-18T03:22:33.120Z,59.7
2023-05-18T03:25:20.600Z,63.7
2023-05-18T03:28:10.118Z,55.7
2023-05-18T03:30:57.469Z,53.7
2023-05-18T03:33:44.933Z,55.6
2023-05-18T03:36:32.274Z,57.2
2023-05-18T03:39:20.871Z,60.4
2023-05-18T03:42:08.395Z,62
2023-05-18T03:44:56.108Z,61.1
2023-05-18T03:47:43.613Z,55
2023-05-18T03:50:31.408Z,55.6
2023-05-18T03:53:18.785Z,56.7
2023-05-18T03:56:06.153Z,58.4
2023-05-18T03:58:53.652Z,59.1
2023-05-18T04:01:42.963Z,59.6
2023-05-18T04:04:30.612Z,62.1
2023-05-18T04:07:18.174Z,62.9
2023-05-18T04:10:09.095Z,53.4
2023-05-18T04:12:57.196Z,54.5
2023-05-18T04:15:44.585Z,56.3
2023-05-18T04:18:33.262Z,57.1
2023-05-18T04:21:20.776Z,58.8
2023-05-18T04:24:08.043Z,60.4
2023-05-18T04:26:58.930Z,60.5
2023-05-18T04:29:47.250Z,64.9
2023-05-18T04:32:34.712Z,59.1
2023-05-18T04:35:22.271Z,55
2023-05-18T04:38:10.511Z,54.7
2023-05-18T04:40:57.894Z,58.2
2023-05-18T04:43:45.953Z,59.5
2023-05-18T04:46:34.828Z,62.4
2023-05-18T04:49:24.366Z,60
2023-05-18T04:52:13.122Z,56.7
2023-05-18T04:55:00.620Z,57.4
2023-05-18T04:57:48.612Z,58.9
2023-05-18T05:00:38.519Z,61.3
2023-05-18T05:03:26.067Z,61.8
2023-05-18T05:06:13.464Z,60.4
2023-05-18T05:09:01.410Z,54.7
2023-05-18T05:11:50.111Z,54.2
2023-05-18T05:14:37.571Z,57.3
2023-05-18T05:17:25.157Z,59
2023-05-18T05:20:12.437Z,60.4
2023-05-18T05:23:00.122Z,62.2
2023-05-18T05:25:47.591Z,61.9
2023-05-18T05:28:34.958Z,53.8
2023-05-18T05:31:22.291Z,52.4
2023-05-18T05:34:10.027Z,55.3
2023-05-18T05:36:58.010Z,56.9
2023-05-18T05:39:45.488Z,58.2
2023-05-18T05:42:32.851Z,59.1
2023-05-18T05:45:20.261Z,59.2
2023-05-18T05:48:09.181Z,59.8
2023-05-18T05:50:57.533Z,59.9
2023-05-18T05:53:45.104Z,60.5
2023-05-18T05:56:33.938Z,60.6
2023-05-18T05:59:21.219Z,61.2
2023-05-18T06:02:08.682Z,61.5
2023-05-18T06:04:56.766Z,61.5
2023-05-18T06:07:44.131Z,62.1
2023-05-18T06:10:31.642Z,61.5
2023-05-18T06:13:19.194Z,53
2023-05-18T06:16:06.955Z,51
2023-05-18T06:18:54.407Z,53
2023-05-18T06:21:41.927Z,55
2023-05-18T06:24:29.468Z,55
2023-05-18T06:27:16.906Z,57.3
2023-05-18T06:30:05.119Z,57.2
2023-05-18T06:32:55.669Z,57.2
2023-05-18T06:35:43.205Z,58.5
2023-05-18T06:38:30.756Z,58.4
2023-05-18T06:41:18.226Z,58.8
2023-05-18T06:44:07.769Z,59
2023-05-18T06:46:55.335Z,58.4
2023-05-18T06:49:42.589Z,58.4
2023-05-18T06:52:30.040Z,57.7
2023-05-18T06:55:17.410Z,57.7
2023-05-18T06:58:04.832Z,58.3
2023-05-18T07:00:52.598Z,57.5
2023-05-18T07:03:40.091Z,57.9
2023-05-18T07:06:27.516Z,58.3
2023-05-18T07:09:16.147Z,56.3
2023-05-18T07:12:03.436Z,57.6
2023-05-18T07:14:51.629Z,56.8
2023-05-18T07:17:39.003Z,56.1
2023-05-18T07:20:26.748Z,56.8
2023-05-18T07:26:18.820Z,55.8
2023-05-18T07:29:07.044Z,54.4
2023-05-18T07:31:54.631Z,54.9
2023-05-18T07:34:42.382Z,52.9
2023-05-18T07:37:31.264Z,54.8
2023-05-18T07:40:18.986Z,55.1
2023-05-18T07:43:06.800Z,54.8
2023-05-18T07:45:54.962Z,54.4
2023-05-18T07:48:42.418Z,53.5
2023-05-18T07:51:30.293Z,54.1
2023-05-18T07:54:19.053Z,53.7
2023-05-18T07:57:06.520Z,53.2
2023-05-18T07:59:53.923Z,53.1
2023-05-18T08:02:41.552Z,52.7
2023-05-18T08:05:30.467Z,52.1
2023-05-18T08:08:18.064Z,52.5
2023-05-18T08:11:06.351Z,52
2023-05-18T08:13:59.012Z,51.9
2023-05-18T08:16:46.597Z,50
2023-05-18T08:19:34.135Z,50.5
2023-05-18T08:22:22.487Z,47.3
2023-05-18T08:25:09.875Z,50.5
2023-05-18T08:27:57.521Z,50.3
2023-05-18T08:30:45.096Z,50.3
2023-05-18T08:33:33.153Z,50.6
2023-05-18T08:36:20.470Z,48.1
2023-05-18T08:39:07.832Z,49.3
2023-05-18T08:41:56.229Z,45.6
2023-05-18T08:44:49.398Z,48.6
2023-05-18T08:47:47.538Z,46.8
2023-05-18T08:50:36.016Z,45.8
2023-05-18T08:53:26.312Z,47.5
2023-05-18T08:56:15.806Z,46.6
2023-05-18T08:59:07.530Z,46.1
2023-05-18T09:01:56.596Z,46.3
2023-05-18T09:04:44.586Z,47
2023-05-18T09:07:33.392Z,46.1
2023-05-18T09:10:22.825Z,46.7
2023-05-18T09:13:11.142Z,46.4
2023-05-18T09:16:04.357Z,46.7
2023-05-18T09:18:52.717Z,45.3
2023-05-18T09:21:40.804Z,45
2023-05-18T09:24:32.164Z,45.7
2023-05-18T09:27:19.638Z,44.7
2023-05-18T09:30:08.472Z,46.6
2023-05-18T09:32:57.035Z,45.5
2023-05-18T09:35:44.608Z,43.7
2023-05-18T09:38:32.457Z,43.2
2023-05-18T09:41:22.884Z,43.9
2023-05-18T09:44:12.342Z,43.6
2023-05-18T09:47:01.395Z,44
2023-05-18T09:49:53.966Z,43.3
2023-05-18T09:52:42.552Z,43.4
2023-05-18T09:55:32.151Z,42
2023-05-18T09:58:29.323Z,41.5
2023-05-18T10:01:18.010Z,41.8
2023-05-18T10:04:05.619Z,41.1
2023-05-18T10:06:53.239Z,40.4
2023-05-18T10:09:42.216Z,38.8
2023-05-18T10:12:31.017Z,35.2
2023-05-18T10:15:19.143Z,38.8
2023-05-18T10:18:09.244Z,38.7
2023-05-18T10:20:59.274Z,38.9
2023-05-18T10:23:50.639Z,38.5
2023-05-18T10:26:39.392Z,36.5
2023-05-18T10:29:28.908Z,38.5
2023-05-18T10:32:17.662Z,36.3
2023-05-18T10:35:08.740Z,37.4
2023-05-18T10:37:56.621Z,36.4
2023-05-18T10:40:44.965Z,36.7
2023-05-18T10:43:34.453Z,37.9
2023-05-18T10:46:22.681Z,34.9
2023-05-18T10:49:11.303Z,35.7
2023-05-18T10:52:02.675Z,32
2023-05-18T10:54:54.048Z,34.8
2023-05-18T10:57:42.671Z,33.5
2023-05-18T11:00:35.856Z,33.1
2023-05-18T11:03:24.756Z,33.8
2023-05-18T11:06:13.461Z,31.9
2023-05-18T11:09:09.426Z,32.9
2023-05-18T11:12:09.123Z,32.5
2023-05-18T11:14:58.756Z,29.3
2023-05-18T11:17:46.420Z,30.5
2023-05-18T11:20:58.425Z,30.8
2023-05-18T11:23:46.240Z,31.6
2023-05-18T11:27:08.322Z,31.7
2023-05-18T11:30:14.729Z,31.5
2023-05-18T11:33:18.411Z,31.4
2023-05-18T11:36:15.245Z,30.7
2023-05-18T11:39:09.096Z,30.4
2023-05-18T11:42:08.055Z,29.9
2023-05-18T11:44:59.104Z,30.6
2023-05-18T11:47:52.690Z,30.9
2023-05-18T11:50:46.628Z,31.8
2023-05-18T11:53:34.814Z,32.8
2023-05-18T11:56:22.342Z,32.2
2023-05-18T11:59:10.865Z,31.4
2023-05-18T12:01:59.356Z,32.8
2023-05-18T12:04:48.819Z,30.3
2023-05-18T12:07:38.813Z,31.5
2023-05-18T12:10:28.479Z,31.8
2023-05-18T12:13:16.977Z,31.7
2023-05-18T12:16:05.253Z,29.9
2023-05-18T12:18:53.332Z,30.6
2023-05-18T12:21:42.150Z,32
2023-05-18T12:24:30.632Z,32
2023-05-18T12:27:18.061Z,30.1
2023-05-18T12:30:07.840Z,30.1
2023-05-18T12:32:56.975Z,29.9
2023-05-18T12:35:46.893Z,28.9
2023-05-18T12:38:34.417Z,28.6
2023-05-18T12:41:22.318Z,28.2
2023-05-18T12:44:11.265Z,28.7
2023-05-18T12:46:58.786Z,27.6
2023-05-18T12:49:47.006Z,27.9
2023-05-18T12:52:35.575Z,27.6
2023-05-18T12:55:25.533Z,27.9
2023-05-18T12:58:15.250Z,28.4
2023-05-18T13:01:05.515Z,29.2
2023-05-18T13:03:54.082Z,30.2
2023-05-18T13:06:43.042Z,29.4
2023-05-18T13:09:30.551Z,29.1
2023-05-18T13:12:18.256Z,29.4
2023-05-18T13:15:22.083Z,26.2
2023-05-18T13:18:10.254Z,25.1
2023-05-18T13:20:59.715Z,27.8
2023-05-18T13:23:47.360Z,28.1
2023-05-18T13:26:39.094Z,27.9
2023-05-18T13:29:26.676Z,27.7
2023-05-18T13:32:16.849Z,25.4
2023-05-18T13:35:04.454Z,24.8
2023-05-18T13:37:52.327Z,25.7
2023-05-18T13:40:40.428Z,26.5
2023-05-18T13:43:28.151Z,26.8
2023-05-18T13:46:15.921Z,26.3
2023-05-18T13:49:04.682Z,25.5
2023-05-18T13:51:52.147Z,26.7
2023-05-18T13:54:40.186Z,25.1
2023-05-18T13:57:27.736Z,26.1
2023-05-18T14:00:16.678Z,26.3
2023-05-18T14:03:05.591Z,26
2023-05-18T14:05:54.653Z,26.1
2023-05-18T14:08:42.782Z,26.6
2023-05-18T14:11:30.360Z,26.9
2023-05-18T14:14:19.911Z,27
2023-05-18T14:17:09.248Z,26.5
2023-05-18T14:19:58.778Z,26.6
2023-05-18T14:22:46.585Z,24.7
2023-05-18T14:25:34.219Z,25.3
2023-05-18T14:28:21.888Z,24.7
2023-05-18T14:31:09.545Z,25.3
2023-05-18T14:33:57.064Z,26.1
2023-05-18T14:36:44.774Z,26.5
2023-05-18T14:39:32.348Z,27.3
2023-05-18T14:42:20.553Z,26.5
2023-05-18T14:45:08.104Z,26.5
2023-05-18T14:47:56.224Z,23.8
2023-05-18T14:50:43.902Z,25.6
2023-05-18T14:53:31.442Z,24.7
2023-05-18T14:56:20.006Z,25.6
2023-05-18T14:59:07.687Z,25.7
2023-05-18T15:01:55.225Z,26.6
2023-05-18T15:04:43.359Z,27.6
2023-05-18T15:07:30.954Z,27.2
2023-05-18T15:10:19.551Z,26
2023-05-18T15:13:08.044Z,25
2023-05-18T15:15:55.840Z,24
2023-05-18T15:18:43.517Z,23.6
2023-05-18T15:21:31.329Z,22
2023-05-18T15:24:18.725Z,21.4
2023-05-18T15:27:06.328Z,19.6
2023-05-18T15:29:55.128Z,18.6
2023-05-18T15:32:42.731Z,16.7
2023-05-18T15:35:30.472Z,15.4
2023-05-18T15:38:19.501Z,14.3
2023-05-18T15:41:06.899Z,15.6
2023-05-18T15:43:54.446Z,15.3
2023-05-18T15:46:41.865Z,15.8
2023-05-18T15:49:29.457Z,16.2
2023-05-18T15:52:16.962Z,17.1
2023-05-18T15:55:04.708Z,17.1
2023-05-18T15:57:53.154Z,17.5
2023-05-18T16:00:40.861Z,16.6
2023-05-18T16:03:28.872Z,15.4
2023-05-18T16:06:16.393Z,14.4
2023-05-18T16:09:04.265Z,13.7
2023-05-18T16:11:52.145Z,14
2023-05-18T16:14:39.687Z,13.1
2023-05-18T16:17:27.319Z,13.6
2023-05-18T16:20:14.921Z,13.1
2023-05-18T16:23:03.406Z,13.3
2023-05-18T16:25:51.670Z,14.4
2023-05-18T16:28:39.263Z,14
2023-05-18T16:31:26.805Z,14.3
2023-05-18T16:34:14.374Z,14.1
2023-05-18T16:37:01.922Z,14.7
2023-05-18T16:39:50.879Z,14.6
2023-05-18T16:42:38.289Z,14.4
2023-05-18T16:45:27.216Z,14.7
2023-05-18T16:48:14.685Z,13.6
2023-05-18T16:51:02.339Z,14.2
2023-05-18T16:53:51.404Z,13.5
2023-05-18T16:56:38.843Z,13.3
2023-05-18T16:59:26.416Z,14.1
2023-05-18T17:02:14.435Z,14.7
2023-05-18T17:05:03.949Z,16.2
2023-05-18T17:07:53.179Z,16.6
2023-05-18T17:10:41.084Z,16.5
2023-05-18T17:13:28.892Z,16.2
2023-05-18T17:16:16.558Z,16.1
2023-05-18T17:19:06.245Z,16.6
2023-05-18T17:21:54.638Z,16.4
2023-05-18T17:24:42.106Z,17.6
2023-05-18T17:27:29.577Z,18
2023-05-18T17:30:17.282Z,17.7
2023-05-18T17:33:05.132Z,19.3
2023-05-18T17:35:52.661Z,19
2023-05-18T17:38:40.599Z,18.7
2023-05-18T17:41:28.104Z,19
2023-05-18T17:44:16.931Z,20.4
2023-05-18T17:47:04.725Z,20.6
2023-05-18T17:49:52.457Z,21.5
2023-05-18T17:52:41.804Z,19.1
2023-05-18T17:55:29.423Z,21.5
2023-05-18T17:58:17.171Z,21.3
2023-05-18T18:01:04.786Z,21.8
2023-05-18T18:03:53.176Z,21.6
2023-05-18T18:06:41.072Z,21
2023-05-18T18:09:30.082Z,22.3
2023-05-18T18:12:18.074Z,20.7
2023-05-18T18:15:05.847Z,22.6
2023-05-18T18:17:54.730Z,23.1
2023-05-18T18:20:42.333Z,27
2023-05-18T18:23:33.048Z,27.7
2023-05-18T18:26:21.815Z,29.5
2023-05-18T18:29:09.228Z,33.6
2023-05-18T18:31:56.827Z,34.9
2023-05-18T18:34:44.524Z,34.7
2023-05-18T18:37:32.035Z,35.7
2023-05-18T18:40:19.856Z,37.6
2023-05-18T18:43:07.664Z,37.8
2023-05-18T18:45:55.610Z,39.4
2023-05-18T18:48:43.552Z,40.8
2023-05-18T18:51:31.665Z,42.5
2023-05-18T18:54:19.315Z,43.2
2023-05-18T18:57:08.113Z,42.2
2023-05-18T18:59:56.807Z,43.1
2023-05-18T19:02:45.416Z,43.4
2023-05-18T19:05:34.321Z,44.7
2023-05-18T19:08:22.654Z,44.4
2023-05-18T19:11:10.554Z,45.7
2023-05-18T19:13:58.741Z,45.2
2023-05-18T19:16:47.229Z,45.3
2023-05-18T19:19:35.058Z,46.3
2023-05-18T19:22:23.259Z,48
2023-05-18T19:25:10.817Z,46.6
2023-05-18T19:27:58.357Z,46.8
2023-05-18T19:30:45.970Z,46.6
2023-05-18T19:33:34.301Z,46.9
2023-05-18T19:36:21.840Z,46.9
2023-05-18T19:39:09.440Z,47.5
2023-05-18T19:41:59.839Z,47.5
2023-05-18T19:44:47.754Z,49.7
2023-05-18T19:47:35.184Z,49.2
2023-05-18T19:50:22.790Z,49.4
2023-05-18T19:53:10.588Z,51.1
2023-05-18T19:55:58.187Z,52.1
2023-05-18T19:58:46.127Z,51.9
2023-05-18T20:01:34.285Z,51.9
2023-05-18T20:04:22.296Z,51.2
2023-05-18T20:07:12.716Z,51.9
2023-05-18T20:10:01.651Z,51.9
2023-05-18T20:12:52.182Z,52.6
2023-05-18T20:15:39.946Z,52.6
2023-05-18T20:18:28.290Z,53.2
2023-05-18T20:21:16.323Z,54.5
2023-05-18T20:24:05.221Z,53.5
2023-05-18T20:26:52.797Z,53.2
2023-05-18T20:29:40.349Z,54.3
2023-05-18T20:32:28.130Z,53.8
2023-05-18T20:35:17.142Z,53
2023-05-18T20:38:05.319Z,54
2023-05-18T20:40:54.206Z,54.9
2023-05-18T20:43:42.527Z,53.3
2023-05-18T20:46:35.079Z,53.8
2023-05-18T20:49:22.751Z,54.6
2023-05-18T20:52:10.139Z,54.9
2023-05-18T20:54:57.624Z,55.8
2023-05-18T20:57:45.023Z,55.8
2023-05-18T21:00:33.916Z,55
2023-05-18T21:03:22.326Z,55.4
2023-05-18T21:06:10.000Z,55.2
2023-05-18T21:08:57.657Z,54.7
2023-05-18T21:11:45.710Z,55.2
2023-05-18T21:14:33.723Z,55.9
2023-05-18T21:17:21.853Z,55.8
2023-05-18T21:20:09.337Z,55.7
2023-05-18T21:22:57.270Z,55.8
2023-05-18T21:25:44.939Z,57
2023-05-18T21:28:32.314Z,55.6
2023-05-18T21:31:19.918Z,56.8
2023-05-18T21:34:07.394Z,55.2
2023-05-18T21:36:54.828Z,56.4
2023-05-18T21:39:42.477Z,56.7
2023-05-18T21:42:30.559Z,57.7
2023-05-18T21:45:18.066Z,57
2023-05-18T21:48:07.219Z,56.8
2023-05-18T21:50:54.945Z,56.4
2023-05-18T21:53:42.315Z,57.4
2023-05-18T21:56:29.794Z,56.8
2023-05-18T21:59:19.159Z,58.4
2023-05-18T22:02:06.621Z,56.6
2023-05-18T22:04:54.095Z,56.8
2023-05-18T22:07:41.882Z,58.4
2023-05-18T22:10:29.665Z,58.6
2023-05-18T22:13:17.295Z,58.4
2023-05-18T22:16:04.956Z,58.6
2023-05-18T22:18:53.140Z,57.5
2023-05-18T22:21:40.544Z,57.5
2023-05-18T22:24:27.827Z,56.9
2023-05-18T22:27:15.467Z,59
2023-05-18T22:30:03.638Z,57.7
2023-05-18T22:32:53.886Z,58
2023-05-18T22:35:42.545Z,59
2023-05-18T22:38:30.468Z,58.5
2023-05-18T22:41:17.856Z,57.7
2023-05-18T22:44:06.520Z,58
2023-05-18T22:46:53.966Z,56.8
2023-05-18T22:49:41.763Z,57.3
2023-05-18T22:52:30.464Z,56.4
2023-05-18T22:55:19.337Z,56.6
2023-05-18T22:58:06.715Z,57.3
2023-05-18T23:00:54.104Z,57.7
2023-05-18T23:03:41.872Z,57.4
2023-05-18T23:06:29.251Z,57.7
2023-05-18T23:09:17.449Z,57.7
2023-05-18T23:12:05.160Z,56.7
2023-05-18T23:14:54.914Z,58.7
2023-05-18T23:17:42.949Z,57.9
2023-05-18T23:20:31.045Z,59
2023-05-18T23:23:19.067Z,58.2
2023-05-18T23:26:07.630Z,58.9
2023-05-18T23:28:55.687Z,58.3
2023-05-18T23:31:43.038Z,57.7
2023-05-18T23:34:30.587Z,58.2
2023-05-18T23:37:18.747Z,57.6
2023-05-18T23:40:08.063Z,57.3
2023-05-18T23:43:10.869Z,57.4
2023-05-18T23:45:58.854Z,57.5
2023-05-18T23:48:47.011Z,57.6
2023-05-18T23:51:36.780Z,58.8
2023-05-18T23:54:25.395Z,58.2
2023-05-18T23:57:13.825Z,58
